sensor_id;sensor_type;location;lat;lon;timestamp;P1;durP1;ratioP1;P2;durP2;ratioP2
69906;SDS011;57190;47.918;8.112;2023-01-15T00:00:59;0.60;;;0.60;;
69906;SDS011;57190;47.918;8.112;2023-01-15T00:03:26;1.13;;;0.60;;
69906;SDS011;57190;47.918;8.112;2023-01-15T00:05:52;0.83;;;0.60;;
69906;SDS011;57190;47.918;8.112;2023-01-15T00:08:18;0.60;;;0.60;;
69906;SDS011;57190;47.918;8.112;2023-01-15T00:10:43;0.50;;;0.50;;
69906;SDS011;57190;47.918;8.112;2023-01-15T00:13:09;0.50;;;0.50;;
69906;SDS011;57190;47.918;8.112;2023-01-15T00:15:35;0.57;;;0.50;;
69906;SDS011;57190;47.918;8.112;2023-01-15T00:18:00;0.40;;;0.40;;
69906;SDS011;57190;47.918;8.112;2023-01-15T00:20:26;0.83;;;0.50;;
69906;SDS011;57190;47.918;8.112;2023-01-15T00:22:52;0.50;;;0.50;;
69906;SDS011;57190;47.918;8.112;2023-01-15T00:25:18;0.37;;;0.37;;
69906;SDS011;57190;47.918;8.112;2023-01-15T00:28:02;0.30;;;0.30;;
69906;SDS011;57190;47.918;8.112;2023-01-15T00:30:27;0.47;;;0.47;;
69906;SDS011;57190;47.918;8.112;2023-01-15T00:32:53;0.30;;;0.30;;
69906;SDS011;57190;47.918;8.112;2023-01-15T00:35:19;0.50;;;0.50;;
69906;SDS011;57190;47.918;8.112;2023-01-15T00:37:46;0.57;;;0.57;;
69906;SDS011;57190;47.918;8.112;2023-01-15T00:40:13;0.93;;;0.40;;
69906;SDS011;57190;47.918;8.112;2023-01-15T00:42:40;0.40;;;0.40;;
69906;SDS011;57190;47.918;8.112;2023-01-15T00:45:06;0.93;;;0.40;;
69906;SDS011;57190;47.918;8.112;2023-01-15T00:47:36;0.40;;;0.40;;
69906;SDS011;57190;47.918;8.112;2023-01-15T00:50:07;0.30;;;0.30;;
69906;SDS011;57190;47.918;8.112;2023-01-15T00:52:35;0.40;;;0.40;;
69906;SDS011;57190;47.918;8.112;2023-01-15T00:55:00;0.40;;;0.40;;
69906;SDS011;57190;47.918;8.112;2023-01-15T00:57:26;0.40;;;0.40;;
69906;SDS011;57190;47.918;8.112;2023-01-15T00:59:52;0.37;;;0.37;;
69906;SDS011;57190;47.918;8.112;2023-01-15T01:02:17;0.40;;;0.40;;
69906;SDS011;57190;47.918;8.112;2023-01-15T01:04:43;0.50;;;0.50;;
69906;SDS011;57190;47.918;8.112;2023-01-15T01:07:08;0.50;;;0.50;;
69906;SDS011;57190;47.918;8.112;2023-01-15T01:09:34;0.40;;;0.40;;
69906;SDS011;57190;47.918;8.112;2023-01-15T01:12:00;0.53;;;0.40;;
69906;SDS011;57190;47.918;8.112;2023-01-15T01:14:26;0.40;;;0.40;;
69906;SDS011;57190;47.918;8.112;2023-01-15T01:16:52;0.33;;;0.33;;
69906;SDS011;57190;47.918;8.112;2023-01-15T01:19:18;0.50;;;0.50;;
69906;SDS011;57190;47.918;8.112;2023-01-15T01:21:47;0.40;;;0.40;;
69906;SDS011;57190;47.918;8.112;2023-01-15T01:24:14;0.40;;;0.40;;
69906;SDS011;57190;47.918;8.112;2023-01-15T01:26:42;0.30;;;0.30;;
69906;SDS011;57190;47.918;8.112;2023-01-15T01:29:12;0.37;;;0.37;;
69906;SDS011;57190;47.918;8.112;2023-01-15T01:31:43;0.40;;;0.40;;
69906;SDS011;57190;47.918;8.112;2023-01-15T01:34:09;0.30;;;0.30;;
69906;SDS011;57190;47.918;8.112;2023-01-15T01:36:37;0.40;;;0.40;;
69906;SDS011;57190;47.918;8.112;2023-01-15T01:39:04;0.40;;;0.40;;
69906;SDS011;57190;47.918;8.112;2023-01-15T01:41:31;0.43;;;0.43;;
69906;SDS011;57190;47.918;8.112;2023-01-15T01:43:58;0.30;;;0.30;;
69906;SDS011;57190;47.918;8.112;2023-01-15T01:46:27;0.77;;;0.40;;
69906;SDS011;57190;47.918;8.112;2023-01-15T01:49:10;0.50;;;0.50;;
69906;SDS011;57190;47.918;8.112;2023-01-15T01:51:43;0.30;;;0.30;;
69906;SDS011;57190;47.918;8.112;2023-01-15T01:54:12;0.53;;;0.40;;
69906;SDS011;57190;47.918;8.112;2023-01-15T01:56:42;1.33;;;0.30;;
69906;SDS011;57190;47.918;8.112;2023-01-15T01:59:08;0.30;;;0.30;;
69906;SDS011;57190;47.918;8.112;2023-01-15T02:01:33;0.30;;;0.30;;
69906;SDS011;57190;47.918;8.112;2023-01-15T02:03:59;0.30;;;0.30;;
69906;SDS011;57190;47.918;8.112;2023-01-15T02:06:26;0.40;;;0.40;;
69906;SDS011;57190;47.918;8.112;2023-01-15T02:08:53;0.30;;;0.30;;
69906;SDS011;57190;47.918;8.112;2023-01-15T02:11:19;0.40;;;0.40;;
69906;SDS011;57190;47.918;8.112;2023-01-15T02:14:02;0.40;;;0.40;;
69906;SDS011;57190;47.918;8.112;2023-01-15T02:24:28;0.30;;;0.30;;
69906;SDS011;57190;47.918;8.112;2023-01-15T02:27:22;0.30;;;0.30;;
69906;SDS011;57190;47.918;8.112;2023-01-15T02:29:51;0.40;;;0.40;;
69906;SDS011;57190;47.918;8.112;2023-01-15T02:34:56;0.40;;;0.30;;
69906;SDS011;57190;47.918;8.112;2023-01-15T02:37:27;0.33;;;0.33;;
69906;SDS011;57190;47.918;8.112;2023-01-15T02:39:56;0.40;;;0.40;;
69906;SDS011;57190;47.918;8.112;2023-01-15T02:42:24;0.20;;;0.20;;
69906;SDS011;57190;47.918;8.112;2023-01-15T02:44:52;0.30;;;0.30;;
69906;SDS011;57190;47.918;8.112;2023-01-15T02:47:23;0.30;;;0.30;;
69906;SDS011;57190;47.918;8.112;2023-01-15T02:49:53;0.40;;;0.40;;
69906;SDS011;57190;47.918;8.112;2023-01-15T02:52:23;0.30;;;0.30;;
69906;SDS011;57190;47.918;8.112;2023-01-15T02:55:05;0.40;;;0.40;;
69906;SDS011;57190;47.918;8.112;2023-01-15T02:57:36;0.50;;;0.50;;
69906;SDS011;57190;47.918;8.112;2023-01-15T03:00:04;0.40;;;0.40;;
69906;SDS011;57190;47.918;8.112;2023-01-15T03:02:44;0.40;;;0.40;;
69906;SDS011;57190;47.918;8.112;2023-01-15T03:05:16;0.83;;;0.40;;
69906;SDS011;57190;47.918;8.112;2023-01-15T03:07:47;0.40;;;0.40;;
69906;SDS011;57190;47.918;8.112;2023-01-15T03:10:15;0.33;;;0.33;;
69906;SDS011;57190;47.918;8.112;2023-01-15T03:13:15;0.50;;;0.50;;
69906;SDS011;57190;47.918;8.112;2023-01-15T03:18:55;0.40;;;0.40;;
69906;SDS011;57190;47.918;8.112;2023-01-15T03:21:31;0.30;;;0.30;;
69906;SDS011;57190;47.918;8.112;2023-01-15T03:24:10;0.40;;;0.40;;
69906;SDS011;57190;47.918;8.112;2023-01-15T03:26:38;0.57;;;0.50;;
69906;SDS011;57190;47.918;8.112;2023-01-15T03:29:04;0.40;;;0.40;;
69906;SDS011;57190;47.918;8.112;2023-01-15T03:31:33;0.40;;;0.40;;
69906;SDS011;57190;47.918;8.112;2023-01-15T03:33:59;0.40;;;0.40;;
69906;SDS011;57190;47.918;8.112;2023-01-15T03:36:25;0.40;;;0.40;;
69906;SDS011;57190;47.918;8.112;2023-01-15T03:38:51;0.50;;;0.40;;
69906;SDS011;57190;47.918;8.112;2023-01-15T03:41:34;0.80;;;0.50;;
69906;SDS011;57190;47.918;8.112;2023-01-15T03:51:55;0.30;;;0.30;;
69906;SDS011;57190;47.918;8.112;2023-01-15T03:54:36;0.40;;;0.40;;
69906;SDS011;57190;47.918;8.112;2023-01-15T03:57:29;1.07;;;0.60;;
69906;SDS011;57190;47.918;8.112;2023-01-15T04:00:24;0.40;;;0.40;;
69906;SDS011;57190;47.918;8.112;2023-01-15T04:02:54;0.30;;;0.30;;
69906;SDS011;57190;47.918;8.112;2023-01-15T04:05:21;1.03;;;0.40;;
69906;SDS011;57190;47.918;8.112;2023-01-15T04:07:49;0.47;;;0.47;;
69906;SDS011;57190;47.918;8.112;2023-01-15T04:10:17;0.40;;;0.40;;
69906;SDS011;57190;47.918;8.112;2023-01-15T04:12:42;0.50;;;0.50;;
69906;SDS011;57190;47.918;8.112;2023-01-15T04:15:09;0.40;;;0.40;;
69906;SDS011;57190;47.918;8.112;2023-01-15T04:17:36;0.50;;;0.50;;
69906;SDS011;57190;47.918;8.112;2023-01-15T04:20:01;0.60;;;0.40;;
69906;SDS011;57190;47.918;8.112;2023-01-15T04:22:27;0.40;;;0.40;;
69906;SDS011;57190;47.918;8.112;2023-01-15T04:24:52;0.40;;;0.40;;
69906;SDS011;57190;47.918;8.112;2023-01-15T04:27:19;1.10;;;0.47;;
69906;SDS011;57190;47.918;8.112;2023-01-15T04:29:45;0.47;;;0.47;;
69906;SDS011;57190;47.918;8.112;2023-01-15T04:32:10;0.50;;;0.50;;
69906;SDS011;57190;47.918;8.112;2023-01-15T04:34:35;0.50;;;0.50;;
69906;SDS011;57190;47.918;8.112;2023-01-15T04:37:01;0.47;;;0.47;;
69906;SDS011;57190;47.918;8.112;2023-01-15T04:39:26;0.40;;;0.40;;
69906;SDS011;57190;47.918;8.112;2023-01-15T04:41:52;0.30;;;0.30;;
69906;SDS011;57190;47.918;8.112;2023-01-15T04:44:36;0.33;;;0.33;;
69906;SDS011;57190;47.918;8.112;2023-01-15T04:47:02;0.30;;;0.30;;
69906;SDS011;57190;47.918;8.112;2023-01-15T04:49:28;0.30;;;0.30;;
69906;SDS011;57190;47.918;8.112;2023-01-15T04:51:54;0.40;;;0.40;;
69906;SDS011;57190;47.918;8.112;2023-01-15T04:54:19;0.30;;;0.30;;
69906;SDS011;57190;47.918;8.112;2023-01-15T04:56:47;0.37;;;0.37;;
69906;SDS011;57190;47.918;8.112;2023-01-15T04:59:15;0.53;;;0.50;;
69906;SDS011;57190;47.918;8.112;2023-01-15T05:01:41;0.40;;;0.40;;
69906;SDS011;57190;47.918;8.112;2023-01-15T05:04:07;0.40;;;0.40;;
69906;SDS011;57190;47.918;8.112;2023-01-15T05:06:33;0.50;;;0.33;;
69906;SDS011;57190;47.918;8.112;2023-01-15T05:08:59;0.40;;;0.40;;
69906;SDS011;57190;47.918;8.112;2023-01-15T05:11:25;0.83;;;0.47;;
69906;SDS011;57190;47.918;8.112;2023-01-15T05:13:51;0.40;;;0.40;;
69906;SDS011;57190;47.918;8.112;2023-01-15T05:16:18;0.40;;;0.40;;
69906;SDS011;57190;47.918;8.112;2023-01-15T05:18:46;0.83;;;0.40;;
69906;SDS011;57190;47.918;8.112;2023-01-15T05:21:31;0.30;;;0.30;;
69906;SDS011;57190;47.918;8.112;2023-01-15T05:23:59;0.47;;;0.47;;
69906;SDS011;57190;47.918;8.112;2023-01-15T05:26:27;0.40;;;0.40;;
69906;SDS011;57190;47.918;8.112;2023-01-15T05:28:54;0.30;;;0.30;;
69906;SDS011;57190;47.918;8.112;2023-01-15T05:31:22;1.70;;;0.50;;
69906;SDS011;57190;47.918;8.112;2023-01-15T05:33:49;0.50;;;0.50;;
69906;SDS011;57190;47.918;8.112;2023-01-15T05:36:16;0.30;;;0.30;;
69906;SDS011;57190;47.918;8.112;2023-01-15T05:38:44;0.30;;;0.30;;
69906;SDS011;57190;47.918;8.112;2023-01-15T05:41:13;0.30;;;0.30;;
69906;SDS011;57190;47.918;8.112;2023-01-15T05:44:00;0.30;;;0.30;;
69906;SDS011;57190;47.918;8.112;2023-01-15T05:46:27;0.30;;;0.30;;
69906;SDS011;57190;47.918;8.112;2023-01-15T05:48:53;0.30;;;0.30;;
69906;SDS011;57190;47.918;8.112;2023-01-15T05:51:18;0.40;;;0.30;;
69906;SDS011;57190;47.918;8.112;2023-01-15T05:53:44;0.40;;;0.40;;
69906;SDS011;57190;47.918;8.112;2023-01-15T05:56:10;0.40;;;0.37;;
69906;SDS011;57190;47.918;8.112;2023-01-15T05:58:36;0.37;;;0.37;;
69906;SDS011;57190;47.918;8.112;2023-01-15T06:01:08;0.40;;;0.40;;
69906;SDS011;57190;47.918;8.112;2023-01-15T06:03:34;0.40;;;0.40;;
69906;SDS011;57190;47.918;8.112;2023-01-15T06:05:59;0.50;;;0.50;;
69906;SDS011;57190;47.918;8.112;2023-01-15T06:08:25;0.30;;;0.30;;
69906;SDS011;57190;47.918;8.112;2023-01-15T06:10:51;0.73;;;0.40;;
69906;SDS011;57190;47.918;8.112;2023-01-15T06:13:16;0.50;;;0.50;;
69906;SDS011;57190;47.918;8.112;2023-01-15T06:15:42;0.50;;;0.50;;
69906;SDS011;57190;47.918;8.112;2023-01-15T06:18:09;0.40;;;0.40;;
69906;SDS011;57190;47.918;8.112;2023-01-15T06:20:35;0.30;;;0.30;;
69906;SDS011;57190;47.918;8.112;2023-01-15T06:23:02;0.40;;;0.40;;
69906;SDS011;57190;47.918;8.112;2023-01-15T06:25:27;0.40;;;0.40;;
69906;SDS011;57190;47.918;8.112;2023-01-15T06:27:53;0.50;;;0.50;;
69906;SDS011;57190;47.918;8.112;2023-01-15T06:30:18;0.53;;;0.53;;
69906;SDS011;57190;47.918;8.112;2023-01-15T06:32:44;0.40;;;0.40;;
69906;SDS011;57190;47.918;8.112;2023-01-15T06:35:09;0.50;;;0.40;;
69906;SDS011;57190;47.918;8.112;2023-01-15T06:37:36;0.40;;;0.40;;
69906;SDS011;57190;47.918;8.112;2023-01-15T06:40:01;0.50;;;0.50;;
69906;SDS011;57190;47.918;8.112;2023-01-15T06:42:27;1.03;;;0.40;;
69906;SDS011;57190;47.918;8.112;2023-01-15T06:45:11;0.30;;;0.30;;
69906;SDS011;57190;47.918;8.112;2023-01-15T06:47:55;0.63;;;0.40;;
69906;SDS011;57190;47.918;8.112;2023-01-15T06:50:22;0.47;;;0.47;;
69906;SDS011;57190;47.918;8.112;2023-01-15T06:52:49;0.40;;;0.40;;
69906;SDS011;57190;47.918;8.112;2023-01-15T06:55:14;0.40;;;0.40;;
69906;SDS011;57190;47.918;8.112;2023-01-15T06:57:42;0.50;;;0.50;;
69906;SDS011;57190;47.918;8.112;2023-01-15T07:00:09;1.23;;;0.63;;
69906;SDS011;57190;47.918;8.112;2023-01-15T07:02:36;0.50;;;0.47;;
69906;SDS011;57190;47.918;8.112;2023-01-15T07:05:01;0.50;;;0.40;;
69906;SDS011;57190;47.918;8.112;2023-01-15T07:07:27;0.53;;;0.53;;
69906;SDS011;57190;47.918;8.112;2023-01-15T07:09:54;0.43;;;0.43;;
69906;SDS011;57190;47.918;8.112;2023-01-15T07:12:19;0.50;;;0.50;;
69906;SDS011;57190;47.918;8.112;2023-01-15T07:14:45;0.40;;;0.40;;
69906;SDS011;57190;47.918;8.112;2023-01-15T07:17:11;0.50;;;0.50;;
69906;SDS011;57190;47.918;8.112;2023-01-15T07:19:37;0.50;;;0.50;;
69906;SDS011;57190;47.918;8.112;2023-01-15T07:22:03;0.50;;;0.50;;
69906;SDS011;57190;47.918;8.112;2023-01-15T07:24:29;0.50;;;0.50;;
69906;SDS011;57190;47.918;8.112;2023-01-15T07:26:54;0.30;;;0.30;;
69906;SDS011;57190;47.918;8.112;2023-01-15T07:29:20;0.57;;;0.57;;
69906;SDS011;57190;47.918;8.112;2023-01-15T07:31:47;0.50;;;0.50;;
69906;SDS011;57190;47.918;8.112;2023-01-15T07:34:13;0.50;;;0.50;;
69906;SDS011;57190;47.918;8.112;2023-01-15T07:36:38;0.40;;;0.40;;
69906;SDS011;57190;47.918;8.112;2023-01-15T07:39:04;0.40;;;0.40;;
69906;SDS011;57190;47.918;8.112;2023-01-15T07:41:30;0.40;;;0.40;;
69906;SDS011;57190;47.918;8.112;2023-01-15T07:44:14;0.47;;;0.40;;
69906;SDS011;57190;47.918;8.112;2023-01-15T07:46:58;0.50;;;0.50;;
69906;SDS011;57190;47.918;8.112;2023-01-15T07:49:42;0.40;;;0.40;;
69906;SDS011;57190;47.918;8.112;2023-01-15T07:54:42;0.20;;;0.20;;
69906;SDS011;57190;47.918;8.112;2023-01-15T07:57:08;0.30;;;0.30;;
69906;SDS011;57190;47.918;8.112;2023-01-15T07:59:35;0.47;;;0.40;;
69906;SDS011;57190;47.918;8.112;2023-01-15T08:02:00;0.30;;;0.30;;
69906;SDS011;57190;47.918;8.112;2023-01-15T08:04:26;0.40;;;0.40;;
69906;SDS011;57190;47.918;8.112;2023-01-15T08:06:52;0.40;;;0.40;;
69906;SDS011;57190;47.918;8.112;2023-01-15T08:09:18;0.30;;;0.30;;
69906;SDS011;57190;47.918;8.112;2023-01-15T08:11:43;0.40;;;0.40;;
69906;SDS011;57190;47.918;8.112;2023-01-15T08:14:27;0.40;;;0.40;;
69906;SDS011;57190;47.918;8.112;2023-01-15T08:17:11;0.47;;;0.47;;
69906;SDS011;57190;47.918;8.112;2023-01-15T08:19:36;0.40;;;0.40;;
69906;SDS011;57190;47.918;8.112;2023-01-15T08:22:02;0.43;;;0.43;;
69906;SDS011;57190;47.918;8.112;2023-01-15T08:24:27;0.40;;;0.40;;
69906;SDS011;57190;47.918;8.112;2023-01-15T08:26:53;0.50;;;0.50;;
69906;SDS011;57190;47.918;8.112;2023-01-15T08:29:19;0.40;;;0.40;;
69906;SDS011;57190;47.918;8.112;2023-01-15T08:31:45;0.50;;;0.50;;
69906;SDS011;57190;47.918;8.112;2023-01-15T08:34:11;0.50;;;0.50;;
69906;SDS011;57190;47.918;8.112;2023-01-15T08:36:36;0.50;;;0.40;;
69906;SDS011;57190;47.918;8.112;2023-01-15T08:39:02;0.40;;;0.40;;
69906;SDS011;57190;47.918;8.112;2023-01-15T08:41:28;0.50;;;0.50;;
69906;SDS011;57190;47.918;8.112;2023-01-15T08:43:54;0.50;;;0.50;;
69906;SDS011;57190;47.918;8.112;2023-01-15T08:46:19;0.83;;;0.50;;
69906;SDS011;57190;47.918;8.112;2023-01-15T08:48:45;0.50;;;0.50;;
69906;SDS011;57190;47.918;8.112;2023-01-15T08:51:11;0.47;;;0.47;;
69906;SDS011;57190;47.918;8.112;2023-01-15T08:53:37;0.60;;;0.60;;
69906;SDS011;57190;47.918;8.112;2023-01-15T08:56:03;0.63;;;0.63;;
69906;SDS011;57190;47.918;8.112;2023-01-15T08:58:29;0.40;;;0.40;;
69906;SDS011;57190;47.918;8.112;2023-01-15T09:01:03;0.30;;;0.30;;
69906;SDS011;57190;47.918;8.112;2023-01-15T09:03:30;0.40;;;0.40;;
69906;SDS011;57190;47.918;8.112;2023-01-15T09:05:58;0.50;;;0.50;;
69906;SDS011;57190;47.918;8.112;2023-01-15T09:08:27;0.37;;;0.37;;
69906;SDS011;57190;47.918;8.112;2023-01-15T09:10:57;0.40;;;0.40;;
69906;SDS011;57190;47.918;8.112;2023-01-15T09:13:23;0.40;;;0.40;;
69906;SDS011;57190;47.918;8.112;2023-01-15T09:15:49;0.30;;;0.30;;
69906;SDS011;57190;47.918;8.112;2023-01-15T09:18:15;0.60;;;0.60;;
69906;SDS011;57190;47.918;8.112;2023-01-15T09:20:44;0.60;;;0.60;;
69906;SDS011;57190;47.918;8.112;2023-01-15T09:23:10;0.53;;;0.53;;
69906;SDS011;57190;47.918;8.112;2023-01-15T09:25:35;0.57;;;0.57;;
69906;SDS011;57190;47.918;8.112;2023-01-15T09:28:01;0.40;;;0.40;;
69906;SDS011;57190;47.918;8.112;2023-01-15T09:30:26;0.60;;;0.60;;
69906;SDS011;57190;47.918;8.112;2023-01-15T09:32:53;0.53;;;0.53;;
69906;SDS011;57190;47.918;8.112;2023-01-15T09:35:18;0.40;;;0.40;;
69906;SDS011;57190;47.918;8.112;2023-01-15T09:37:49;0.60;;;0.60;;
69906;SDS011;57190;47.918;8.112;2023-01-15T09:40:22;0.50;;;0.50;;
69906;SDS011;57190;47.918;8.112;2023-01-15T09:46:24;1.23;;;1.23;;
69906;SDS011;57190;47.918;8.112;2023-01-15T09:54:44;0.70;;;0.70;;
69906;SDS011;57190;47.918;8.112;2023-01-15T09:57:34;0.70;;;0.70;;
69906;SDS011;57190;47.918;8.112;2023-01-15T10:00:02;0.50;;;0.50;;
69906;SDS011;57190;47.918;8.112;2023-01-15T10:05:08;0.40;;;0.40;;
69906;SDS011;57190;47.918;8.112;2023-01-15T10:07:53;0.60;;;0.60;;
69906;SDS011;57190;47.918;8.112;2023-01-15T10:10:25;0.40;;;0.40;;
69906;SDS011;57190;47.918;8.112;2023-01-15T10:12:59;0.60;;;0.60;;
69906;SDS011;57190;47.918;8.112;2023-01-15T10:15:40;1.17;;;0.53;;
69906;SDS011;57190;47.918;8.112;2023-01-15T10:18:15;0.60;;;0.60;;
69906;SDS011;57190;47.918;8.112;2023-01-15T10:20:50;0.50;;;0.50;;
69906;SDS011;57190;47.918;8.112;2023-01-15T10:34:26;1.77;;;0.90;;
69906;SDS011;57190;47.918;8.112;2023-01-15T10:37:13;0.50;;;0.50;;
69906;SDS011;57190;47.918;8.112;2023-01-15T10:47:45;0.60;;;0.60;;
69906;SDS011;57190;47.918;8.112;2023-01-15T10:50:15;0.50;;;0.50;;
69906;SDS011;57190;47.918;8.112;2023-01-15T10:53:00;0.60;;;0.60;;
69906;SDS011;57190;47.918;8.112;2023-01-15T10:55:39;0.60;;;0.60;;
69906;SDS011;57190;47.918;8.112;2023-01-15T11:01:03;0.60;;;0.60;;
69906;SDS011;57190;47.918;8.112;2023-01-15T11:03:35;0.50;;;0.50;;
69906;SDS011;57190;47.918;8.112;2023-01-15T11:06:03;0.47;;;0.47;;
69906;SDS011;57190;47.918;8.112;2023-01-15T11:08:32;0.40;;;0.40;;
69906;SDS011;57190;47.918;8.112;2023-01-15T11:13:55;0.50;;;0.50;;
69906;SDS011;57190;47.918;8.112;2023-01-15T11:16:40;0.50;;;0.50;;
69906;SDS011;57190;47.918;8.112;2023-01-15T11:22:04;0.50;;;0.50;;
69906;SDS011;57190;47.918;8.112;2023-01-15T11:24:52;0.57;;;0.53;;
69906;SDS011;57190;47.918;8.112;2023-01-15T11:27:20;0.60;;;0.60;;
69906;SDS011;57190;47.918;8.112;2023-01-15T11:29:59;0.50;;;0.50;;
69906;SDS011;57190;47.918;8.112;2023-01-15T11:32:30;0.43;;;0.43;;
69906;SDS011;57190;47.918;8.112;2023-01-15T11:35:15;0.57;;;0.57;;
69906;SDS011;57190;47.918;8.112;2023-01-15T11:37:42;0.60;;;0.60;;
69906;SDS011;57190;47.918;8.112;2023-01-15T11:40:21;0.40;;;0.40;;
69906;SDS011;57190;47.918;8.112;2023-01-15T11:42:49;0.50;;;0.50;;
69906;SDS011;57190;47.918;8.112;2023-01-15T11:45:34;0.60;;;0.60;;
69906;SDS011;57190;47.918;8.112;2023-01-15T11:48:29;0.40;;;0.40;;
69906;SDS011;57190;47.918;8.112;2023-01-15T11:51:25;0.53;;;0.53;;
69906;SDS011;57190;47.918;8.112;2023-01-15T11:53:53;1.27;;;0.60;;
69906;SDS011;57190;47.918;8.112;2023-01-15T11:56:25;0.60;;;0.60;;
69906;SDS011;57190;47.918;8.112;2023-01-15T11:58:57;0.40;;;0.40;;
69906;SDS011;57190;47.918;8.112;2023-01-15T12:04:45;0.60;;;0.60;;
69906;SDS011;57190;47.918;8.112;2023-01-15T12:06:53;0.53;;;0.53;;
69906;SDS011;57190;47.918;8.112;2023-01-15T12:14:44;0.50;;;0.50;;
69906;SDS011;57190;47.918;8.112;2023-01-15T12:25:32;0.50;;;0.50;;
69906;SDS011;57190;47.918;8.112;2023-01-15T12:36:06;0.40;;;0.40;;
69906;SDS011;57190;47.918;8.112;2023-01-15T12:39:23;0.60;;;0.50;;
69906;SDS011;57190;47.918;8.112;2023-01-15T12:44:15;0.60;;;0.60;;
69906;SDS011;57190;47.918;8.112;2023-01-15T12:47:18;0.87;;;0.50;;
69906;SDS011;57190;47.918;8.112;2023-01-15T12:49:51;0.50;;;0.50;;
69906;SDS011;57190;47.918;8.112;2023-01-15T12:52:26;1.00;;;0.60;;
69906;SDS011;57190;47.918;8.112;2023-01-15T12:55:18;0.53;;;0.53;;
69906;SDS011;57190;47.918;8.112;2023-01-15T12:57:47;0.50;;;0.50;;
69906;SDS011;57190;47.918;8.112;2023-01-15T13:00:23;0.60;;;0.60;;
69906;SDS011;57190;47.918;8.112;2023-01-15T13:05:55;0.80;;;0.70;;
69906;SDS011;57190;47.918;8.112;2023-01-15T13:08:32;1.47;;;0.57;;
69906;SDS011;57190;47.918;8.112;2023-01-15T13:11:02;1.30;;;0.80;;
69906;SDS011;57190;47.918;8.112;2023-01-15T13:13:32;1.20;;;0.53;;
69906;SDS011;57190;47.918;8.112;2023-01-15T13:18:31;2.27;;;0.93;;
69906;SDS011;57190;47.918;8.112;2023-01-15T13:21:02;0.70;;;0.70;;
69906;SDS011;57190;47.918;8.112;2023-01-15T13:26:52;1.53;;;0.80;;
69906;SDS011;57190;47.918;8.112;2023-01-15T13:34:51;1.57;;;0.70;;
69906;SDS011;57190;47.918;8.112;2023-01-15T13:37:32;1.20;;;0.87;;
69906;SDS011;57190;47.918;8.112;2023-01-15T13:40:24;2.03;;;0.83;;
69906;SDS011;57190;47.918;8.112;2023-01-15T13:42:54;1.07;;;0.70;;
69906;SDS011;57190;47.918;8.112;2023-01-15T13:45:36;2.43;;;1.23;;
69906;SDS011;57190;47.918;8.112;2023-01-15T13:48:12;1.37;;;1.27;;
69906;SDS011;57190;47.918;8.112;2023-01-15T13:50:42;1.00;;;0.90;;
69906;SDS011;57190;47.918;8.112;2023-01-15T13:53:27;1.47;;;0.87;;
69906;SDS011;57190;47.918;8.112;2023-01-15T13:55:59;0.80;;;0.80;;
69906;SDS011;57190;47.918;8.112;2023-01-15T13:58:39;1.97;;;0.80;;
69906;SDS011;57190;47.918;8.112;2023-01-15T14:04:12;1.73;;;1.60;;
69906;SDS011;57190;47.918;8.112;2023-01-15T14:06:46;1.10;;;0.80;;
69906;SDS011;57190;47.918;8.112;2023-01-15T14:09:13;2.10;;;0.80;;
69906;SDS011;57190;47.918;8.112;2023-01-15T14:18:00;1.00;;;0.93;;
69906;SDS011;57190;47.918;8.112;2023-01-15T14:23:07;1.27;;;0.87;;
69906;SDS011;57190;47.918;8.112;2023-01-15T14:25:59;1.53;;;0.77;;
69906;SDS011;57190;47.918;8.112;2023-01-15T14:39:20;1.17;;;0.80;;
69906;SDS011;57190;47.918;8.112;2023-01-15T14:47:47;1.00;;;0.83;;
69906;SDS011;57190;47.918;8.112;2023-01-15T14:52:47;0.80;;;0.80;;
69906;SDS011;57190;47.918;8.112;2023-01-15T14:55:16;1.83;;;0.97;;
69906;SDS011;57190;47.918;8.112;2023-01-15T14:57:55;1.60;;;0.70;;
69906;SDS011;57190;47.918;8.112;2023-01-15T15:00:22;1.23;;;0.80;;
69906;SDS011;57190;47.918;8.112;2023-01-15T15:02:50;1.90;;;0.90;;
69906;SDS011;57190;47.918;8.112;2023-01-15T15:05:17;1.50;;;0.93;;
69906;SDS011;57190;47.918;8.112;2023-01-15T15:07:45;0.70;;;0.70;;
69906;SDS011;57190;47.918;8.112;2023-01-15T15:12:59;0.97;;;0.83;;
69906;SDS011;57190;47.918;8.112;2023-01-15T15:15:34;1.07;;;0.80;;
69906;SDS011;57190;47.918;8.112;2023-01-15T15:18:02;0.87;;;0.80;;
69906;SDS011;57190;47.918;8.112;2023-01-15T15:23:28;1.40;;;0.80;;
69906;SDS011;57190;47.918;8.112;2023-01-15T15:26:06;0.80;;;0.80;;
69906;SDS011;57190;47.918;8.112;2023-01-15T15:31:26;2.77;;;0.90;;
69906;SDS011;57190;47.918;8.112;2023-01-15T15:33:55;1.93;;;0.70;;
69906;SDS011;57190;47.918;8.112;2023-01-15T15:36:23;0.80;;;0.80;;
69906;SDS011;57190;47.918;8.112;2023-01-15T15:38:53;0.80;;;0.80;;
69906;SDS011;57190;47.918;8.112;2023-01-15T15:41:21;1.80;;;0.73;;
69906;SDS011;57190;47.918;8.112;2023-01-15T15:44:11;0.70;;;0.70;;
69906;SDS011;57190;47.918;8.112;2023-01-15T15:47:19;1.33;;;0.70;;
69906;SDS011;57190;47.918;8.112;2023-01-15T15:50:04;0.90;;;0.90;;
69906;SDS011;57190;47.918;8.112;2023-01-15T15:52:32;4.33;;;0.77;;
69906;SDS011;57190;47.918;8.112;2023-01-15T15:55:01;1.23;;;0.90;;
69906;SDS011;57190;47.918;8.112;2023-01-15T15:57:30;3.47;;;0.77;;
69906;SDS011;57190;47.918;8.112;2023-01-15T15:59:57;2.73;;;1.00;;
69906;SDS011;57190;47.918;8.112;2023-01-15T16:02:30;0.80;;;0.70;;
69906;SDS011;57190;47.918;8.112;2023-01-15T16:05:01;0.73;;;0.73;;
69906;SDS011;57190;47.918;8.112;2023-01-15T16:07:47;1.97;;;0.73;;
69906;SDS011;57190;47.918;8.112;2023-01-15T16:10:14;0.60;;;0.60;;
69906;SDS011;57190;47.918;8.112;2023-01-15T16:12:47;1.67;;;0.90;;
69906;SDS011;57190;47.918;8.112;2023-01-15T16:15:17;1.63;;;0.80;;
69906;SDS011;57190;47.918;8.112;2023-01-15T16:17:45;2.93;;;1.20;;
69906;SDS011;57190;47.918;8.112;2023-01-15T16:20:12;3.83;;;1.10;;
69906;SDS011;57190;47.918;8.112;2023-01-15T16:22:48;1.60;;;0.83;;
69906;SDS011;57190;47.918;8.112;2023-01-15T16:25:29;1.63;;;0.90;;
69906;SDS011;57190;47.918;8.112;2023-01-15T16:28:06;3.23;;;1.20;;
69906;SDS011;57190;47.918;8.112;2023-01-15T16:30:58;0.80;;;0.80;;
69906;SDS011;57190;47.918;8.112;2023-01-15T16:33:26;0.93;;;0.87;;
69906;SDS011;57190;47.918;8.112;2023-01-15T16:35:58;1.10;;;0.90;;
69906;SDS011;57190;47.918;8.112;2023-01-15T16:38:28;1.53;;;1.10;;
69906;SDS011;57190;47.918;8.112;2023-01-15T16:41:05;1.87;;;1.20;;
69906;SDS011;57190;47.918;8.112;2023-01-15T16:43:31;3.47;;;1.20;;
69906;SDS011;57190;47.918;8.112;2023-01-15T16:46:15;0.90;;;0.90;;
69906;SDS011;57190;47.918;8.112;2023-01-15T16:48:43;1.00;;;0.93;;
69906;SDS011;57190;47.918;8.112;2023-01-15T16:53:58;1.40;;;0.63;;
69906;SDS011;57190;47.918;8.112;2023-01-15T16:59:02;2.00;;;0.90;;
69906;SDS011;57190;47.918;8.112;2023-01-15T17:02:32;1.83;;;1.00;;
69906;SDS011;57190;47.918;8.112;2023-01-15T17:04:54;1.17;;;0.80;;
69906;SDS011;57190;47.918;8.112;2023-01-15T17:07:37;2.13;;;1.40;;
69906;SDS011;57190;47.918;8.112;2023-01-15T17:10:04;2.53;;;0.83;;
69906;SDS011;57190;47.918;8.112;2023-01-15T17:12:42;2.50;;;0.87;;
69906;SDS011;57190;47.918;8.112;2023-01-15T17:17:43;1.50;;;0.63;;
69906;SDS011;57190;47.918;8.112;2023-01-15T17:20:19;2.53;;;1.33;;
69906;SDS011;57190;47.918;8.112;2023-01-15T17:22:51;1.23;;;0.90;;
69906;SDS011;57190;47.918;8.112;2023-01-15T17:25:23;1.90;;;0.80;;
69906;SDS011;57190;47.918;8.112;2023-01-15T17:27:52;1.07;;;0.90;;
69906;SDS011;57190;47.918;8.112;2023-01-15T17:30:18;0.97;;;0.77;;
69906;SDS011;57190;47.918;8.112;2023-01-15T17:32:44;1.97;;;0.90;;
69906;SDS011;57190;47.918;8.112;2023-01-15T17:35:24;1.47;;;0.90;;
69906;SDS011;57190;47.918;8.112;2023-01-15T17:37:51;1.27;;;0.63;;
69906;SDS011;57190;47.918;8.112;2023-01-15T17:40:18;1.83;;;1.10;;
69906;SDS011;57190;47.918;8.112;2023-01-15T17:42:43;1.57;;;0.97;;